Terminal Aerodrome Forecast
Issued by NWS

Home | Current Version | Previous Version | Text Only | Print | Product List | Glossary On
Versions: 1 2 3 4 5 6 7 8 9 10 11 12 13 14 15 16 17 18 19 20 21 22 23 24 25 26 27 28 29 30 31 32 33 34 35 36 37
000
FTUS45 KCYS 050520
TAFLAR
TAF
KLAR 050520Z 0506/0606 18008KT P6SM VCTS SCT100CB
     FM051500 24012G25KT P6SM BKN050
     FM051900 27013KT P6SM OVC050
      TEMPO 0520/0524 VRB20G35KT 4SM TSRA BKN050CB
     FM060000 33010KT P6SM VCSH BKN060=

USA.gov is the U.S. government's official web portal to all federal, state and local government web resources and services.